Terminal Aerodrome Forecast
Issued by NWS

Home | Current Version | Previous Version | Text Only | Print | Product List | Glossary On
Versions: 1 2 3 4 5 6 7 8 9 10 11 12 13 14 15 16 17 18 19 20 21 22
000
FTUS43 KDLH 042332
TAFBRD
TAF
KBRD 042332Z 0500/0524 18011KT 2SM HZ FU SCT025
      TEMPO 0500/0502 3SM FU BKN025
     FM050200 18004KT 6SM HZ FU FEW050
     FM050700 18004KT P6SM FEW250 WS015/22040KT
     FM051300 17006KT P6SM FEW250
     FM051700 19009G20KT P6SM SCT250
     FM052100 18015G28KT P6SM VCTS SCT050CB=

USA.gov is the U.S. government's official web portal to all federal, state and local government web resources and services.